createdAt,value
2023-02-21T00:00:35.981Z,2.53
2023-02-21T00:03:21.847Z,2.60
2023-02-21T00:06:07.781Z,2.67
2023-02-21T00:08:55.196Z,2.70
2023-02-21T00:11:41.480Z,2.60
2023-02-21T00:14:27.632Z,2.83
2023-02-21T00:17:13.687Z,2.53
2023-02-21T00:19:59.939Z,3.53
2023-02-21T00:22:45.869Z,2.90
2023-02-21T00:25:33.491Z,3.13
2023-02-21T00:28:19.930Z,3.00
2023-02-21T00:31:05.884Z,3.30
2023-02-21T00:33:54.789Z,2.93
2023-02-21T00:36:40.695Z,3.27
2023-02-21T00:39:26.704Z,3.20
2023-02-21T00:42:14.263Z,3.13
2023-02-21T00:45:00.199Z,3.37
2023-02-21T00:47:46.146Z,3.67
2023-02-21T00:50:32.420Z,3.53
2023-02-21T00:53:18.333Z,3.40
2023-02-21T00:56:05.329Z,3.40
2023-02-21T00:58:52.937Z,3.67
2023-02-21T01:01:39.313Z,3.53
2023-02-21T01:04:25.486Z,3.73
2023-02-21T01:07:11.392Z,3.60
2023-02-21T01:09:57.401Z,3.67
2023-02-21T01:12:43.444Z,3.80
2023-02-21T01:15:30.741Z,3.63
2023-02-21T01:18:17.415Z,3.97
2023-02-21T01:21:03.499Z,3.90
2023-02-21T01:23:50.412Z,4.00
2023-02-21T01:26:36.618Z,4.03
2023-02-21T01:29:23.106Z,3.47
2023-02-21T01:32:10.879Z,3.70
2023-02-21T01:34:58.570Z,4.20
2023-02-21T01:37:44.778Z,3.90
2023-02-21T01:40:33.670Z,3.80
2023-02-21T01:43:19.572Z,4.10
2023-02-21T01:46:07.176Z,3.77
2023-02-21T01:48:55.179Z,3.83
2023-02-21T01:51:45.067Z,3.70
2023-02-21T01:54:31.292Z,4.30
2023-02-21T01:57:19.400Z,3.87
2023-02-21T02:00:07.016Z,3.93
2023-02-21T02:03:04.035Z,4.03
2023-02-21T02:05:51.859Z,4.43
2023-02-21T02:08:40.789Z,4.47
2023-02-21T02:11:30.258Z,5.00
2023-02-21T02:14:10.722Z,5.03
2023-02-21T02:16:43.478Z,4.80
2023-02-21T02:19:42.160Z,4.63
2023-02-21T02:22:28.980Z,4.87
2023-02-21T02:25:04.134Z,5.13
2023-02-21T02:27:47.537Z,5.67
2023-02-21T02:30:36.585Z,5.13
2023-02-21T02:33:23.692Z,5.73
2023-02-21T02:35:56.128Z,5.17
2023-02-21T02:38:27.633Z,5.07
2023-02-21T02:41:00.143Z,5.10
2023-02-21T02:43:32.110Z,6.30
2023-02-21T02:46:03.011Z,6.13
2023-02-21T02:48:33.968Z,6.10
2023-02-21T02:51:05.108Z,6.00
2023-02-21T02:53:36.081Z,6.87
2023-02-21T02:56:06.251Z,6.50
2023-02-21T02:58:38.805Z,7.60
2023-02-21T03:01:13.758Z,6.77
2023-02-21T03:03:52.830Z,5.60
2023-02-21T03:06:28.139Z,6.80
2023-02-21T03:09:03.518Z,6.87
2023-02-21T03:11:32.056Z,7.93
2023-02-21T03:14:04.334Z,7.20
2023-02-21T03:16:35.241Z,7.40
2023-02-21T03:19:05.657Z,7.20
2023-02-21T03:21:38.822Z,7.00
2023-02-21T03:24:10.190Z,7.30
2023-02-21T03:26:40.397Z,7.17
2023-02-21T03:29:41.542Z,7.30
2023-02-21T03:32:13.069Z,7.07
2023-02-21T03:34:42.194Z,6.97
2023-02-21T03:37:23.302Z,7.20
2023-02-21T03:39:51.777Z,7.83
2023-02-21T03:42:20.681Z,8.07
2023-02-21T03:44:49.297Z,7.30
2023-02-21T03:47:18.478Z,8.07
2023-02-21T03:49:47.022Z,6.97
2023-02-21T03:52:16.850Z,7.60
2023-02-21T03:54:45.483Z,6.97
2023-02-21T03:57:18.060Z,6.63
2023-02-21T03:59:48.309Z,7.37
2023-02-21T04:02:17.115Z,7.43
2023-02-21T04:04:48.299Z,7.83
2023-02-21T04:07:22.132Z,7.33
2023-02-21T04:09:51.963Z,7.90
2023-02-21T04:12:26.580Z,7.83
2023-02-21T04:14:56.593Z,8.07
2023-02-21T04:17:25.329Z,7.57
2023-02-21T04:19:54.902Z,7.67
2023-02-21T04:22:24.893Z,7.40
2023-02-21T04:24:53.760Z,7.73
2023-02-21T04:27:24.285Z,8.00
2023-02-21T04:29:56.806Z,7.53
2023-02-21T04:32:25.332Z,7.63
2023-02-21T04:34:54.208Z,8.40
2023-02-21T04:37:22.948Z,7.83
2023-02-21T04:39:52.862Z,7.33
2023-02-21T04:42:21.313Z,7.40
2023-02-21T04:44:59.839Z,7.00
2023-02-21T04:47:29.363Z,6.83
2023-02-21T04:49:58.706Z,7.43
2023-02-21T04:52:27.147Z,7.60
2023-02-21T04:54:56.994Z,6.87
2023-02-21T04:57:25.462Z,7.00
2023-02-21T04:59:58.219Z,8.57
2023-02-21T05:02:26.617Z,8.00
2023-02-21T05:04:55.421Z,7.97
2023-02-21T05:07:24.757Z,7.73
2023-02-21T05:09:53.536Z,7.93
2023-02-21T05:12:23.449Z,8.83
2023-02-21T05:14:52.103Z,8.87
2023-02-21T05:17:20.562Z,7.87
2023-02-21T05:19:49.249Z,7.93
2023-02-21T05:22:20.400Z,8.20
2023-02-21T05:24:49.330Z,8.37
2023-02-21T05:27:17.778Z,7.97
2023-02-21T05:29:49.619Z,8.23
2023-02-21T05:32:18.801Z,7.20
2023-02-21T05:34:47.969Z,7.33
2023-02-21T05:37:16.715Z,7.87
2023-02-21T05:39:45.137Z,7.73
2023-02-21T05:42:13.514Z,7.40
2023-02-21T05:44:42.207Z,7.93
2023-02-21T05:47:12.032Z,7.43
2023-02-21T05:49:40.481Z,7.60
2023-02-21T05:52:10.461Z,7.70
2023-02-21T05:54:38.869Z,8.00
2023-02-21T05:57:07.321Z,7.80
2023-02-21T05:59:35.745Z,7.50
2023-02-21T06:02:04.197Z,6.97
2023-02-21T06:04:34.028Z,7.47
2023-02-21T06:07:02.423Z,7.10
2023-02-21T06:09:31.418Z,7.73
2023-02-21T06:11:59.893Z,8.50
2023-02-21T06:14:28.430Z,8.33
2023-02-21T06:16:56.817Z,8.07
2023-02-21T06:19:25.244Z,7.60
2023-02-21T06:21:55.242Z,7.53
2023-02-21T06:24:24.187Z,7.33
2023-02-21T06:26:52.657Z,7.37
2023-02-21T06:29:23.124Z,7.67
2023-02-21T06:31:51.630Z,7.27
2023-02-21T06:34:20.058Z,7.70
2023-02-21T06:36:48.410Z,8.00
2023-02-21T06:39:18.228Z,7.00
2023-02-21T06:41:46.721Z,7.73
2023-02-21T06:44:15.088Z,7.33
2023-02-21T06:46:43.530Z,7.00
2023-02-21T06:49:12.253Z,7.67
2023-02-21T06:51:41.458Z,7.30
2023-02-21T06:54:09.846Z,6.90
2023-02-21T06:56:39.586Z,6.60
2023-02-21T06:59:08.871Z,6.80
2023-02-21T07:01:37.327Z,5.80
2023-02-21T07:04:05.995Z,6.33
2023-02-21T07:06:34.395Z,5.40
2023-02-21T07:09:02.839Z,5.73
2023-02-21T07:11:32.746Z,5.47
2023-02-21T07:14:02.561Z,5.20
2023-02-21T07:16:31.251Z,5.40
2023-02-21T07:18:59.675Z,5.20
2023-02-21T07:21:28.663Z,5.20
2023-02-21T07:23:57.163Z,6.13
2023-02-21T07:26:25.631Z,4.90
2023-02-21T07:28:54.258Z,4.90
2023-02-21T07:31:24.319Z,4.63
2023-02-21T07:33:52.922Z,4.65
2023-02-21T07:36:22.620Z,5.22
2023-02-21T07:38:51.364Z,4.90
2023-02-21T07:41:19.848Z,4.60
2023-02-21T07:43:48.272Z,4.45
2023-02-21T07:46:17.849Z,4.78
2023-02-21T07:48:47.973Z,4.93
2023-02-21T07:51:16.691Z,4.45
2023-02-21T07:53:45.396Z,5.20
2023-02-21T07:56:13.906Z,4.25
2023-02-21T07:58:42.285Z,4.47
2023-02-21T08:01:10.943Z,4.45
2023-02-21T08:03:40.927Z,4.05
2023-02-21T08:06:11.977Z,4.03
2023-02-21T08:08:40.744Z,3.75
2023-02-21T08:11:09.178Z,4.88
2023-02-21T08:13:37.682Z,4.18
2023-02-21T08:16:06.295Z,4.20
2023-02-21T08:18:34.729Z,3.80
2023-02-21T08:21:03.196Z,4.82
2023-02-21T08:23:33.350Z,4.97
2023-02-21T08:26:02.063Z,4.10
2023-02-21T08:28:30.479Z,4.38
2023-02-21T08:30:58.879Z,4.20
2023-02-21T08:33:27.389Z,4.30
2023-02-21T08:35:55.826Z,4.18
2023-02-21T08:38:24.270Z,4.50
2023-02-21T08:40:56.512Z,4.27
2023-02-21T08:43:25.914Z,4.43
2023-02-21T08:45:54.305Z,4.70
2023-02-21T08:48:23.084Z,3.97
2023-02-21T08:50:52.249Z,4.70
2023-02-21T08:53:20.907Z,4.77
2023-02-21T08:55:49.401Z,5.13
2023-02-21T08:58:19.489Z,4.60
2023-02-21T09:00:48.025Z,5.10
2023-02-21T09:03:16.495Z,4.80
2023-02-21T09:05:44.903Z,4.33
2023-02-21T09:08:13.456Z,4.10
2023-02-21T09:10:47.500Z,4.10
2023-02-21T09:13:16.142Z,4.33
2023-02-21T09:15:45.906Z,4.05
2023-02-21T09:18:14.373Z,3.70
2023-02-21T09:20:42.882Z,3.63
2023-02-21T09:23:11.445Z,3.65
2023-02-21T09:25:39.865Z,3.28
2023-02-21T09:28:08.320Z,2.75
2023-02-21T09:30:36.884Z,2.60
2023-02-21T09:33:06.850Z,2.40
2023-02-21T09:35:35.263Z,2.53
2023-02-21T09:38:03.794Z,2.92
2023-02-21T09:40:36.072Z,2.63
2023-02-21T09:43:06.040Z,2.50
2023-02-21T09:45:35.598Z,2.30
2023-02-21T09:48:06.890Z,2.25
2023-02-21T09:50:41.812Z,1.70
2023-02-21T09:53:10.445Z,1.50
2023-02-21T09:55:40.703Z,1.40
2023-02-21T09:58:12.879Z,1.77
2023-02-21T10:00:44.757Z,1.80
2023-02-21T10:03:24.856Z,1.58
2023-02-21T10:05:56.912Z,1.80
2023-02-21T10:08:30.193Z,1.60
2023-02-21T10:10:59.857Z,2.00
2023-02-21T10:13:33.261Z,1.70
2023-02-21T10:16:03.301Z,1.80
2023-02-21T10:18:36.623Z,1.90
2023-02-21T10:21:13.565Z,1.70
2023-02-21T10:23:43.737Z,1.90
2023-02-21T10:26:14.106Z,1.70
2023-02-21T10:28:43.640Z,1.77
2023-02-21T10:31:14.647Z,1.83
2023-02-21T10:33:43.253Z,1.75
2023-02-21T10:36:15.355Z,1.70
2023-02-21T10:38:44.870Z,1.60
2023-02-21T10:41:14.541Z,1.30
2023-02-21T10:43:45.749Z,1.30
2023-02-21T10:46:17.276Z,1.50
2023-02-21T10:48:46.372Z,1.73
2023-02-21T10:51:17.600Z,1.23
2023-02-21T10:53:47.408Z,1.50
2023-02-21T10:56:24.690Z,1.30
2023-02-21T10:58:54.464Z,1.38
2023-02-21T11:01:25.693Z,1.27
2023-02-21T11:03:55.480Z,1.63
2023-02-21T11:06:28.406Z,1.58
2023-02-21T11:08:57.100Z,1.50
2023-02-21T11:11:46.556Z,1.60
2023-02-21T11:14:23.682Z,1.50
2023-02-21T11:17:12.592Z,1.30
2023-02-21T11:19:44.028Z,1.40
2023-02-21T11:22:13.943Z,1.40
2023-02-21T11:24:51.610Z,1.30
2023-02-21T11:27:20.286Z,1.42
2023-02-21T11:29:50.479Z,1.35
2023-02-21T11:32:25.318Z,1.65
2023-02-21T11:34:53.711Z,1.30
2023-02-21T11:37:23.915Z,2.80
2023-02-21T11:39:52.875Z,1.30
2023-02-21T11:42:28.988Z,1.23
2023-02-21T11:45:16.260Z,1.38
2023-02-21T11:47:46.974Z,1.20
2023-02-21T11:50:23.488Z,1.40
2023-02-21T11:52:56.839Z,1.50
2023-02-21T11:55:26.867Z,1.30
2023-02-21T11:57:59.867Z,1.50
2023-02-21T12:00:29.812Z,1.35
2023-02-21T12:03:06.299Z,1.40
2023-02-21T12:05:42.852Z,1.10
2023-02-21T12:08:27.444Z,1.23
2023-02-21T12:11:02.248Z,1.30
2023-02-21T12:13:35.043Z,1.60
2023-02-21T12:16:10.375Z,1.20
2023-02-21T12:18:45.038Z,1.23
2023-02-21T12:21:18.482Z,1.20
2023-02-21T12:23:52.316Z,1.02
2023-02-21T12:26:29.028Z,1.10
2023-02-21T12:29:04.863Z,1.15
2023-02-21T12:31:38.063Z,1.13
2023-02-21T12:34:14.833Z,0.90
2023-02-21T12:36:48.747Z,1.08
2023-02-21T12:39:25.577Z,1.55
2023-02-21T12:42:10.296Z,1.10
2023-02-21T12:44:43.416Z,1.20
2023-02-21T12:47:14.333Z,1.10
2023-02-21T12:49:46.406Z,1.20
2023-02-21T12:52:17.586Z,1.45
2023-02-21T12:54:50.917Z,1.00
2023-02-21T12:57:20.650Z,1.27
2023-02-21T12:59:53.533Z,1.35
2023-02-21T13:02:25.666Z,1.40
2023-02-21T13:04:56.826Z,1.40
2023-02-21T13:07:26.578Z,1.30
2023-02-21T13:10:02.278Z,1.30
2023-02-21T13:12:35.940Z,1.02
2023-02-21T13:15:06.244Z,1.30
2023-02-21T13:17:35.961Z,1.40
2023-02-21T13:20:07.701Z,1.00
2023-02-21T13:22:54.923Z,1.20
2023-02-21T13:25:53.327Z,1.10
2023-02-21T13:28:24.000Z,1.17
2023-02-21T13:30:53.438Z,1.10
2023-02-21T13:33:26.925Z,1.37
2023-02-21T13:35:58.162Z,0.90
2023-02-21T13:38:28.730Z,1.20
2023-02-21T13:41:04.828Z,1.17
2023-02-21T13:43:34.923Z,1.20
2023-02-21T13:46:18.212Z,1.00
2023-02-21T13:48:46.636Z,1.20
2023-02-21T13:51:30.213Z,1.00
2023-02-21T13:54:11.144Z,1.10
2023-02-21T13:56:44.640Z,1.00
2023-02-21T13:59:33.176Z,1.00
2023-02-21T14:02:19.408Z,1.00
2023-02-21T14:05:00.496Z,1.38
2023-02-21T14:07:49.187Z,1.08
2023-02-21T14:10:21.914Z,1.20
2023-02-21T14:12:55.971Z,1.20
2023-02-21T14:15:24.492Z,1.10
2023-02-21T14:17:54.404Z,1.20
2023-02-21T14:20:24.390Z,1.20
2023-02-21T14:22:54.489Z,1.40
2023-02-21T14:25:25.143Z,1.27
2023-02-21T14:27:55.244Z,1.33
2023-02-21T14:30:31.860Z,1.40
2023-02-21T14:33:16.023Z,1.17
2023-02-21T14:35:48.572Z,1.20
2023-02-21T14:38:22.729Z,0.90
2023-02-21T14:41:00.377Z,1.05
2023-02-21T14:44:02.337Z,1.20
2023-02-21T14:46:46.795Z,1.00
2023-02-21T14:49:42.287Z,1.00
2023-02-21T14:52:20.684Z,1.00
2023-02-21T14:55:13.122Z,1.10
2023-02-21T14:57:56.350Z,1.00
2023-02-21T15:00:27.821Z,0.93
2023-02-21T15:03:00.118Z,1.00
2023-02-21T15:05:30.484Z,1.00
2023-02-21T15:08:03.161Z,1.00
2023-02-21T15:10:32.932Z,0.70
2023-02-21T15:13:02.519Z,1.10
2023-02-21T15:15:32.355Z,1.00
2023-02-21T15:18:16.094Z,1.20
2023-02-21T15:20:59.648Z,1.00
2023-02-21T15:23:30.770Z,0.90
2023-02-21T15:25:59.850Z,0.90
2023-02-21T15:28:29.278Z,1.20
2023-02-21T15:31:00.575Z,0.60
2023-02-21T15:33:30.668Z,0.80
2023-02-21T15:36:00.934Z,0.83
2023-02-21T15:38:33.505Z,0.80
2023-02-21T15:41:04.799Z,1.00
2023-02-21T15:43:43.655Z,1.20
2023-02-21T15:46:14.566Z,1.07
2023-02-21T15:48:43.202Z,1.10
2023-02-21T15:51:13.142Z,0.67
2023-02-21T15:53:43.198Z,0.80
2023-02-21T15:56:19.609Z,0.90
2023-02-21T15:59:09.358Z,1.17
2023-02-21T16:01:37.909Z,1.33
2023-02-21T16:04:16.528Z,1.07
2023-02-21T16:06:49.364Z,1.53
2023-02-21T16:09:25.883Z,0.93
2023-02-21T16:11:56.029Z,0.90
2023-02-21T16:14:26.845Z,1.00
2023-02-21T16:16:59.179Z,1.10
2023-02-21T16:19:33.159Z,1.00
2023-02-21T16:22:14.738Z,1.20
2023-02-21T16:24:44.644Z,0.93
2023-02-21T16:27:14.262Z,1.17
2023-02-21T16:29:42.771Z,1.10
2023-02-21T16:32:16.955Z,1.30
2023-02-21T16:34:45.788Z,1.23
2023-02-21T16:37:15.515Z,1.23
2023-02-21T16:39:45.567Z,1.27
2023-02-21T16:42:14.030Z,1.00
2023-02-21T16:44:44.708Z,1.43
2023-02-21T16:47:15.548Z,1.40
2023-02-21T16:49:44.540Z,1.50
2023-02-21T16:52:15.315Z,1.60
2023-02-21T16:54:45.619Z,1.90
2023-02-21T16:57:14.234Z,1.40
2023-02-21T16:59:42.857Z,1.80
2023-02-21T17:02:15.161Z,5.67
2023-02-21T17:04:43.682Z,4.80
2023-02-21T17:07:12.152Z,2.33
2023-02-21T17:09:41.861Z,1.70
2023-02-21T17:12:13.693Z,1.40
2023-02-21T17:14:42.165Z,1.30
2023-02-21T17:17:10.623Z,1.70
2023-02-21T17:19:39.086Z,2.00
2023-02-21T17:22:07.626Z,2.23
2023-02-21T17:24:36.088Z,2.10
2023-02-21T17:27:04.544Z,2.10
2023-02-21T17:29:34.555Z,3.00
2023-02-21T17:32:07.088Z,2.80
2023-02-21T17:34:35.627Z,3.07
2023-02-21T17:37:04.360Z,3.33
2023-02-21T17:39:32.815Z,3.63
2023-02-21T17:42:01.232Z,3.30
2023-02-21T17:44:29.953Z,3.50
2023-02-21T17:47:00.013Z,3.20
2023-02-21T17:49:29.608Z,3.30
2023-02-21T17:51:58.033Z,3.30
2023-02-21T17:54:27.336Z,5.20
2023-02-21T17:56:55.850Z,3.60
2023-02-21T17:59:24.546Z,3.70
2023-02-21T18:01:55.696Z,4.00
2023-02-21T18:04:28.374Z,3.67
2023-02-21T18:06:56.838Z,3.10
2023-02-21T18:09:25.778Z,4.00
2023-02-21T18:11:55.404Z,3.90
2023-02-21T18:14:26.861Z,4.50
2023-02-21T18:16:56.452Z,3.70
2023-02-21T18:19:25.226Z,4.17
2023-02-21T18:21:55.516Z,4.13
2023-02-21T18:24:24.912Z,4.07
2023-02-21T18:26:53.381Z,4.30
2023-02-21T18:29:21.743Z,4.30
2023-02-21T18:31:53.654Z,4.60
2023-02-21T18:34:22.125Z,4.67
2023-02-21T18:36:50.663Z,4.80
2023-02-21T18:39:23.134Z,5.50
2023-02-21T18:41:51.554Z,5.43
2023-02-21T18:44:20.248Z,5.20
2023-02-21T18:46:56.519Z,5.07
2023-02-21T18:49:25.085Z,4.33
2023-02-21T18:51:53.763Z,5.10
2023-02-21T18:54:23.723Z,5.57
2023-02-21T18:56:52.862Z,4.20
2023-02-21T18:59:22.020Z,4.33
2023-02-21T19:01:50.708Z,5.10
2023-02-21T19:04:19.488Z,4.57
2023-02-21T19:06:48.098Z,5.10
2023-02-21T19:09:16.545Z,4.70
2023-02-21T19:11:47.411Z,5.20
2023-02-21T19:14:15.805Z,8.83
2023-02-21T19:16:44.472Z,7.37
2023-02-21T19:19:13.360Z,5.43
2023-02-21T19:21:42.274Z,5.63
2023-02-21T19:24:14.190Z,5.60
2023-02-21T19:26:43.370Z,5.60
2023-02-21T19:29:13.402Z,6.20
2023-02-21T19:31:41.915Z,5.90
2023-02-21T19:34:11.027Z,6.00
2023-02-21T19:36:39.877Z,5.93
2023-02-21T19:39:09.042Z,6.10
2023-02-21T19:41:40.705Z,6.10
2023-02-21T19:44:09.525Z,5.83
2023-02-21T19:46:39.387Z,6.27
2023-02-21T19:49:17.509Z,6.63
2023-02-21T19:51:46.364Z,6.10
2023-02-21T19:54:15.122Z,5.60
2023-02-21T19:56:43.565Z,6.07
2023-02-21T19:59:12.129Z,5.97
2023-02-21T20:01:41.935Z,5.70
2023-02-21T20:04:10.588Z,5.47
2023-02-21T20:06:39.868Z,5.27
2023-02-21T20:09:08.792Z,4.90
2023-02-21T20:11:40.193Z,5.67
2023-02-21T20:14:08.795Z,5.17
2023-02-21T20:16:40.205Z,6.57
2023-02-21T20:19:10.819Z,5.70
2023-02-21T20:21:40.995Z,5.93
2023-02-21T20:24:10.304Z,5.37
2023-02-21T20:26:39.030Z,6.30
2023-02-21T20:29:07.666Z,5.97
2023-02-21T20:31:37.734Z,5.80
2023-02-21T20:34:07.022Z,6.37
2023-02-21T20:36:39.750Z,5.70
2023-02-21T20:39:09.522Z,5.80
2023-02-21T20:41:39.841Z,6.00
2023-02-21T20:44:08.323Z,6.03
2023-02-21T20:46:38.516Z,6.03
2023-02-21T20:49:07.045Z,5.83
2023-02-21T20:51:39.151Z,5.80
2023-02-21T20:54:10.958Z,5.73
2023-02-21T20:56:40.562Z,5.50
2023-02-21T20:59:15.736Z,5.53
2023-02-21T21:01:48.106Z,5.80
2023-02-21T21:04:17.539Z,4.60
2023-02-21T21:06:48.000Z,5.60
2023-02-21T21:09:18.088Z,6.10
2023-02-21T21:11:46.911Z,5.53
2023-02-21T21:14:16.450Z,5.73
2023-02-21T21:16:45.803Z,6.97
2023-02-21T21:19:15.016Z,6.30
2023-02-21T21:21:43.449Z,6.57
2023-02-21T21:24:13.174Z,6.97
2023-02-21T21:26:47.304Z,6.77
2023-02-21T21:29:15.717Z,7.13
2023-02-21T21:31:48.372Z,7.13
2023-02-21T21:34:16.794Z,7.27
2023-02-21T21:36:46.345Z,6.27
2023-02-21T21:39:16.725Z,5.80
2023-02-21T21:41:47.876Z,6.57
2023-02-21T21:44:16.446Z,6.40
2023-02-21T21:46:49.206Z,6.33
2023-02-21T21:49:18.312Z,6.63
2023-02-21T21:51:46.794Z,6.00
2023-02-21T21:54:20.690Z,5.50
2023-02-21T21:56:49.836Z,5.37
2023-02-21T21:59:20.335Z,5.70
2023-02-21T22:01:48.999Z,5.60
2023-02-21T22:04:18.943Z,5.97
2023-02-21T22:06:48.019Z,5.57
2023-02-21T22:09:17.778Z,5.40
2023-02-21T22:11:46.904Z,5.47
2023-02-21T22:14:17.009Z,4.67
2023-02-21T22:16:46.212Z,5.10
2023-02-21T22:19:14.619Z,4.50
2023-02-21T22:21:44.111Z,4.97
2023-02-21T22:24:15.281Z,5.40
2023-02-21T22:26:45.678Z,5.50
2023-02-21T22:29:15.677Z,5.93
2023-02-21T22:31:44.662Z,5.93
2023-02-21T22:34:23.757Z,6.43
2023-02-21T22:36:52.701Z,6.27
2023-02-21T22:39:21.797Z,5.63
2023-02-21T22:41:51.878Z,6.47
2023-02-21T22:44:20.263Z,6.13
2023-02-21T22:46:58.263Z,6.43
2023-02-21T22:49:27.245Z,6.90
2023-02-21T22:51:57.674Z,6.57
2023-02-21T22:54:26.342Z,6.27
2023-02-21T22:57:01.618Z,6.77
2023-02-21T22:59:30.106Z,6.33
2023-02-21T23:01:59.375Z,7.60
2023-02-21T23:04:27.875Z,6.70
2023-02-21T23:06:58.062Z,7.40
2023-02-21T23:09:26.734Z,7.17
2023-02-21T23:11:58.437Z,7.70
2023-02-21T23:14:27.222Z,7.73
2023-02-21T23:16:57.784Z,7.43
2023-02-21T23:19:26.394Z,7.40
2023-02-21T23:21:57.662Z,8.07
2023-02-21T23:24:26.138Z,8.77
2023-02-21T23:26:55.880Z,8.60
2023-02-21T23:29:26.998Z,7.83
2023-02-21T23:31:57.995Z,8.43
2023-02-21T23:34:40.129Z,8.37
2023-02-21T23:37:12.124Z,7.00
2023-02-21T23:39:41.009Z,7.77
2023-02-21T23:42:11.714Z,7.30
2023-02-21T23:44:41.280Z,6.93
2023-02-21T23:47:09.720Z,7.17
2023-02-21T23:49:44.151Z,6.80
2023-02-21T23:52:12.753Z,6.67
2023-02-21T23:54:42.101Z,6.83
2023-02-21T23:57:11.848Z,6.57
2023-02-21T23:59:40.290Z,6.50
